sensor_id;sensor_type;location;lat;lon;timestamp;pressure;altitude;pressure_sealevel;temperature;humidity
41312;BME280;27061;41.648;24.568;2023-05-27T00:00:48;85685.63;;;13.18;67.93
41312;BME280;27061;41.648;24.568;2023-05-27T00:03:16;85913.56;;;14.94;68.57
41312;BME280;27061;41.648;24.568;2023-05-27T00:05:44;85891.88;;;14.72;67.62
41312;BME280;27061;41.648;24.568;2023-05-27T00:08:11;85859.13;;;14.45;67.68
41312;BME280;27061;41.648;24.568;2023-05-27T00:10:39;85736.34;;;13.48;68.76
41312;BME280;27061;41.648;24.568;2023-05-27T00:13:06;85870.94;;;14.46;69.56
41312;BME280;27061;41.648;24.568;2023-05-27T00:15:33;85912.59;;;14.79;68.83
41312;BME280;27061;41.648;24.568;2023-05-27T00:18:00;85912.69;;;14.75;69.37
41312;BME280;27061;41.648;24.568;2023-05-27T00:20:29;85913.59;;;14.67;70.07
41312;BME280;27061;41.648;24.568;2023-05-27T00:22:59;85883.69;;;14.37;70.92
41312;BME280;27061;41.648;24.568;2023-05-27T00:25:27;85890.41;;;14.48;70.50
41312;BME280;27061;41.648;24.568;2023-05-27T00:27:55;85903.69;;;14.45;70.52
41312;BME280;27061;41.648;24.568;2023-05-27T00:30:22;85908.72;;;14.39;70.86
41312;BME280;27061;41.648;24.568;2023-05-27T00:32:50;85841.91;;;14.10;70.29
41312;BME280;27061;41.648;24.568;2023-05-27T00:35:17;85889.50;;;14.55;69.83
41312;BME280;27061;41.648;24.568;2023-05-27T00:37:45;85768.19;;;13.53;70.01
41312;BME280;27061;41.648;24.568;2023-05-27T00:40:14;85892.72;;;14.66;69.72
41312;BME280;27061;41.648;24.568;2023-05-27T00:42:44;85840.31;;;14.19;69.81
41312;BME280;27061;41.648;24.568;2023-05-27T00:45:12;85827.00;;;14.21;69.85
41312;BME280;27061;41.648;24.568;2023-05-27T00:47:41;85872.31;;;14.47;69.57
41312;BME280;27061;41.648;24.568;2023-05-27T00:50:09;85838.50;;;14.34;69.16
41312;BME280;27061;41.648;24.568;2023-05-27T00:52:37;85872.22;;;14.51;69.56
41312;BME280;27061;41.648;24.568;2023-05-27T00:55:06;85691.13;;;13.21;69.52
41312;BME280;27061;41.648;24.568;2023-05-27T00:57:34;85867.22;;;14.55;69.27
41312;BME280;27061;41.648;24.568;2023-05-27T01:00:02;85797.75;;;13.96;70.00
41312;BME280;27061;41.648;24.568;2023-05-27T01:02:33;85889.25;;;14.65;69.27
41312;BME280;27061;41.648;24.568;2023-05-27T01:05:01;85848.28;;;14.33;69.57
41312;BME280;27061;41.648;24.568;2023-05-27T01:13:11;85835.72;;;14.34;68.29
41312;BME280;27061;41.648;24.568;2023-05-27T01:15:40;85863.78;;;14.53;67.76
41312;BME280;27061;41.648;24.568;2023-05-27T01:18:09;85836.56;;;14.28;68.04
41312;BME280;27061;41.648;24.568;2023-05-27T01:20:39;85890.59;;;14.67;68.18
41312;BME280;27061;41.648;24.568;2023-05-27T01:23:08;85838.69;;;14.28;68.81
41312;BME280;27061;41.648;24.568;2023-05-27T01:25:37;85807.88;;;14.07;69.34
41312;BME280;27061;41.648;24.568;2023-05-27T01:28:04;85835.41;;;14.19;70.07
41312;BME280;27061;41.648;24.568;2023-05-27T01:30:31;85874.63;;;14.65;70.01
41312;BME280;27061;41.648;24.568;2023-05-27T01:33:04;85772.28;;;13.85;70.02
41312;BME280;27061;41.648;24.568;2023-05-27T01:35:42;85871.56;;;14.75;68.59
41312;BME280;27061;41.648;24.568;2023-05-27T01:38:14;85849.00;;;14.60;68.82
41312;BME280;27061;41.648;24.568;2023-05-27T01:40:44;85844.88;;;14.57;68.08
41312;BME280;27061;41.648;24.568;2023-05-27T01:43:13;85828.59;;;14.41;67.91
41312;BME280;27061;41.648;24.568;2023-05-27T01:45:42;85832.75;;;14.42;68.44
41312;BME280;27061;41.648;24.568;2023-05-27T01:48:10;85849.59;;;14.63;67.62
41312;BME280;27061;41.648;24.568;2023-05-27T01:50:37;85843.28;;;14.64;67.55
41312;BME280;27061;41.648;24.568;2023-05-27T01:53:05;85836.00;;;14.51;67.39
41312;BME280;27061;41.648;24.568;2023-05-27T01:55:33;85865.44;;;14.71;67.26
41312;BME280;27061;41.648;24.568;2023-05-27T01:58:00;85665.28;;;13.26;67.02
41312;BME280;27061;41.648;24.568;2023-05-27T02:00:27;85861.22;;;14.72;67.53
41312;BME280;27061;41.648;24.568;2023-05-27T02:02:55;85729.56;;;13.68;67.52
41312;BME280;27061;41.648;24.568;2023-05-27T02:05:23;85835.63;;;14.38;68.00
41312;BME280;27061;41.648;24.568;2023-05-27T02:07:51;85873.16;;;14.68;68.48
41312;BME280;27061;41.648;24.568;2023-05-27T02:10:18;85782.97;;;14.01;68.21
41312;BME280;27061;41.648;24.568;2023-05-27T02:12:46;85855.75;;;14.68;67.40
41312;BME280;27061;41.648;24.568;2023-05-27T02:15:15;85771.22;;;13.99;67.27
41312;BME280;27061;41.648;24.568;2023-05-27T02:17:43;85840.41;;;14.42;67.22
41312;BME280;27061;41.648;24.568;2023-05-27T02:20:18;85816.75;;;14.14;67.88
41312;BME280;27061;41.648;24.568;2023-05-27T02:22:45;85842.72;;;14.33;68.17
41312;BME280;27061;41.648;24.568;2023-05-27T02:25:12;85617.25;;;12.72;67.76
41312;BME280;27061;41.648;24.568;2023-05-27T02:27:40;85726.13;;;13.38;68.73
41312;BME280;27061;41.648;24.568;2023-05-27T02:30:09;85737.66;;;13.51;69.06
41312;BME280;27061;41.648;24.568;2023-05-27T02:32:38;85858.56;;;14.41;70.06
41312;BME280;27061;41.648;24.568;2023-05-27T02:35:05;85787.97;;;13.97;70.07
41312;BME280;27061;41.648;24.568;2023-05-27T02:37:33;85779.22;;;13.86;70.77
41312;BME280;27061;41.648;24.568;2023-05-27T02:40:00;85823.59;;;14.19;71.23
41312;BME280;27061;41.648;24.568;2023-05-27T02:42:27;85845.50;;;14.33;71.18
41312;BME280;27061;41.648;24.568;2023-05-27T02:44:55;85860.41;;;14.50;71.11
41312;BME280;27061;41.648;24.568;2023-05-27T02:47:22;85856.19;;;14.51;71.58
41312;BME280;27061;41.648;24.568;2023-05-27T02:49:49;85864.59;;;14.49;71.69
41312;BME280;27061;41.648;24.568;2023-05-27T02:52:17;85861.88;;;14.47;72.14
41312;BME280;27061;41.648;24.568;2023-05-27T02:54:44;85717.59;;;13.46;71.35
41312;BME280;27061;41.648;24.568;2023-05-27T02:57:11;85805.16;;;14.05;68.95
41312;BME280;27061;41.648;24.568;2023-05-27T02:59:39;85839.91;;;14.33;69.53
41312;BME280;27061;41.648;24.568;2023-05-27T03:02:06;85868.06;;;14.50;70.88
41312;BME280;27061;41.648;24.568;2023-05-27T03:04:33;85842.81;;;14.29;71.25
41312;BME280;27061;41.648;24.568;2023-05-27T03:07:02;85874.94;;;14.53;70.83
41312;BME280;27061;41.648;24.568;2023-05-27T03:09:29;85772.38;;;13.81;69.93
41312;BME280;27061;41.648;24.568;2023-05-27T03:11:57;85865.97;;;14.50;70.29
41312;BME280;27061;41.648;24.568;2023-05-27T03:14:24;85863.31;;;14.44;70.84
41312;BME280;27061;41.648;24.568;2023-05-27T03:16:53;85883.94;;;14.55;70.49
41312;BME280;27061;41.648;24.568;2023-05-27T03:19:21;85878.34;;;14.55;70.56
41312;BME280;27061;41.648;24.568;2023-05-27T03:21:51;85862.91;;;14.60;70.09
41312;BME280;27061;41.648;24.568;2023-05-27T03:24:19;85798.91;;;14.05;70.49
41312;BME280;27061;41.648;24.568;2023-05-27T03:26:46;85842.81;;;14.29;70.95
41312;BME280;27061;41.648;24.568;2023-05-27T03:29:14;85840.78;;;14.27;71.24
41312;BME280;27061;41.648;24.568;2023-05-27T03:31:42;85770.84;;;13.86;71.15
41312;BME280;27061;41.648;24.568;2023-05-27T03:34:14;85688.41;;;13.18;70.09
41312;BME280;27061;41.648;24.568;2023-05-27T03:36:42;85835.88;;;14.28;70.77
41312;BME280;27061;41.648;24.568;2023-05-27T03:39:14;85864.66;;;14.47;71.29
41312;BME280;27061;41.648;24.568;2023-05-27T03:41:48;85878.56;;;14.47;71.22
41312;BME280;27061;41.648;24.568;2023-05-27T03:44:16;85856.16;;;14.24;71.01
41312;BME280;27061;41.648;24.568;2023-05-27T03:46:43;85866.47;;;14.30;70.89
41312;BME280;27061;41.648;24.568;2023-05-27T03:49:12;85844.50;;;14.18;71.18
41312;BME280;27061;41.648;24.568;2023-05-27T03:51:40;85825.47;;;14.00;70.92
41312;BME280;27061;41.648;24.568;2023-05-27T03:54:07;85728.59;;;13.24;70.72
41312;BME280;27061;41.648;24.568;2023-05-27T03:56:34;85865.47;;;14.42;71.26
41312;BME280;27061;41.648;24.568;2023-05-27T03:59:01;85740.78;;;13.37;71.09
41312;BME280;27061;41.648;24.568;2023-05-27T04:01:29;85702.16;;;13.25;70.60
41312;BME280;27061;41.648;24.568;2023-05-27T04:03:56;85777.25;;;13.80;70.65
41312;BME280;27061;41.648;24.568;2023-05-27T04:06:24;85896.44;;;14.56;71.07
41312;BME280;27061;41.648;24.568;2023-05-27T04:08:51;85870.94;;;14.19;71.08
41312;BME280;27061;41.648;24.568;2023-05-27T04:11:19;85851.44;;;14.19;72.04
41312;BME280;27061;41.648;24.568;2023-05-27T04:13:50;85856.78;;;14.27;72.09
41312;BME280;27061;41.648;24.568;2023-05-27T04:16:17;85718.34;;;13.16;72.81
41312;BME280;27061;41.648;24.568;2023-05-27T04:18:45;85711.66;;;13.34;72.16
41312;BME280;27061;41.648;24.568;2023-05-27T04:21:16;85883.72;;;14.63;71.33
41312;BME280;27061;41.648;24.568;2023-05-27T04:23:43;85843.97;;;14.38;70.68
41312;BME280;27061;41.648;24.568;2023-05-27T04:26:11;85863.22;;;14.48;71.75
41312;BME280;27061;41.648;24.568;2023-05-27T04:28:42;85694.69;;;13.17;72.45
41312;BME280;27061;41.648;24.568;2023-05-27T04:31:12;85841.84;;;14.12;71.90
41312;BME280;27061;41.648;24.568;2023-05-27T04:33:47;85886.28;;;14.45;71.93
41312;BME280;27061;41.648;24.568;2023-05-27T04:36:14;85706.44;;;13.19;72.37
41312;BME280;27061;41.648;24.568;2023-05-27T04:38:55;85851.91;;;14.27;72.59
41312;BME280;27061;41.648;24.568;2023-05-27T04:41:23;85842.75;;;14.04;72.89
41312;BME280;27061;41.648;24.568;2023-05-27T04:44:27;85892.06;;;14.37;72.75
41312;BME280;27061;41.648;24.568;2023-05-27T04:46:57;85791.72;;;13.58;72.27
41312;BME280;27061;41.648;24.568;2023-05-27T04:49:29;85762.44;;;13.32;72.33
41312;BME280;27061;41.648;24.568;2023-05-27T04:51:57;85812.00;;;13.52;72.48
41312;BME280;27061;41.648;24.568;2023-05-27T04:54:24;85841.19;;;13.82;73.46
41312;BME280;27061;41.648;24.568;2023-05-27T04:56:53;85900.06;;;14.22;73.23
41312;BME280;27061;41.648;24.568;2023-05-27T04:59:26;85864.75;;;13.87;74.99
41312;BME280;27061;41.648;24.568;2023-05-27T05:02:14;85888.19;;;14.23;73.38
41312;BME280;27061;41.648;24.568;2023-05-27T05:05:15;85860.19;;;14.03;73.44
41312;BME280;27061;41.648;24.568;2023-05-27T05:07:42;85913.41;;;14.46;73.54
41312;BME280;27061;41.648;24.568;2023-05-27T05:10:15;85873.22;;;14.10;74.13
41312;BME280;27061;41.648;24.568;2023-05-27T05:12:48;85865.63;;;14.09;74.16
41312;BME280;27061;41.648;24.568;2023-05-27T05:15:15;85801.16;;;13.69;74.24
41312;BME280;27061;41.648;24.568;2023-05-27T05:17:42;85804.59;;;13.72;74.10
41312;BME280;27061;41.648;24.568;2023-05-27T05:20:11;85915.78;;;14.62;74.06
41312;BME280;27061;41.648;24.568;2023-05-27T05:22:39;85908.97;;;14.57;73.55
41312;BME280;27061;41.648;24.568;2023-05-27T05:25:08;85905.47;;;14.57;73.31
41312;BME280;27061;41.648;24.568;2023-05-27T05:27:41;85825.06;;;14.16;69.63
41312;BME280;27061;41.648;24.568;2023-05-27T05:30:10;85850.25;;;14.10;69.19
41312;BME280;27061;41.648;24.568;2023-05-27T05:32:38;85874.06;;;14.32;69.58
41312;BME280;27061;41.648;24.568;2023-05-27T05:35:07;85811.03;;;13.64;71.19
41312;BME280;27061;41.648;24.568;2023-05-27T05:37:36;85878.72;;;14.12;71.14
41312;BME280;27061;41.648;24.568;2023-05-27T05:40:03;85861.59;;;14.02;71.58
41312;BME280;27061;41.648;24.568;2023-05-27T05:42:34;85837.56;;;13.88;71.88
41312;BME280;27061;41.648;24.568;2023-05-27T05:45:01;85922.84;;;14.59;71.78
41312;BME280;27061;41.648;24.568;2023-05-27T05:47:30;85863.34;;;14.15;72.31
41312;BME280;27061;41.648;24.568;2023-05-27T05:50:07;85832.97;;;14.05;71.27
41312;BME280;27061;41.648;24.568;2023-05-27T05:52:36;85883.47;;;14.47;70.93
41312;BME280;27061;41.648;24.568;2023-05-27T05:55:03;85905.31;;;14.63;71.59
41312;BME280;27061;41.648;24.568;2023-05-27T05:57:33;85679.41;;;12.87;71.32
41312;BME280;27061;41.648;24.568;2023-05-27T06:00:04;85859.31;;;14.37;70.95
41312;BME280;27061;41.648;24.568;2023-05-27T06:02:43;85787.13;;;13.75;71.06
41312;BME280;27061;41.648;24.568;2023-05-27T06:05:20;85756.22;;;13.59;70.06
41312;BME280;27061;41.648;24.568;2023-05-27T06:07:49;85888.50;;;14.67;69.43
41312;BME280;27061;41.648;24.568;2023-05-27T06:10:16;85908.41;;;14.78;69.17
41312;BME280;27061;41.648;24.568;2023-05-27T06:12:44;85936.22;;;15.07;69.12
41312;BME280;27061;41.648;24.568;2023-05-27T06:15:11;85931.56;;;14.99;70.39
41312;BME280;27061;41.648;24.568;2023-05-27T06:17:52;85941.78;;;15.07;71.30
41312;BME280;27061;41.648;24.568;2023-05-27T06:20:20;85760.75;;;13.72;71.46
41312;BME280;27061;41.648;24.568;2023-05-27T06:22:47;85935.66;;;15.02;70.76
41312;BME280;27061;41.648;24.568;2023-05-27T06:25:35;85873.25;;;14.64;70.50
41312;BME280;27061;41.648;24.568;2023-05-27T06:28:05;85876.00;;;14.66;71.94
41312;BME280;27061;41.648;24.568;2023-05-27T06:30:33;85902.84;;;14.78;71.19
41312;BME280;27061;41.648;24.568;2023-05-27T06:33:03;85859.03;;;14.49;71.18
41312;BME280;27061;41.648;24.568;2023-05-27T06:35:31;85881.88;;;14.81;71.35
41312;BME280;27061;41.648;24.568;2023-05-27T06:37:59;85805.25;;;14.28;71.15
41312;BME280;27061;41.648;24.568;2023-05-27T06:40:27;85919.75;;;15.23;71.25
41312;BME280;27061;41.648;24.568;2023-05-27T06:42:54;85767.59;;;14.04;71.01
41312;BME280;27061;41.648;24.568;2023-05-27T06:45:45;85943.63;;;15.41;71.78
41312;BME280;27061;41.648;24.568;2023-05-27T06:48:46;85908.34;;;15.07;70.65
41312;BME280;27061;41.648;24.568;2023-05-27T06:51:14;85769.22;;;14.22;71.13
41312;BME280;27061;41.648;24.568;2023-05-27T06:53:42;85889.50;;;15.07;70.56
41312;BME280;27061;41.648;24.568;2023-05-27T06:56:13;85711.88;;;13.79;70.31
41312;BME280;27061;41.648;24.568;2023-05-27T06:58:59;85824.38;;;14.69;70.73
41312;BME280;27061;41.648;24.568;2023-05-27T07:01:29;85885.06;;;15.16;69.43
41312;BME280;27061;41.648;24.568;2023-05-27T07:04:00;85774.41;;;14.36;70.16
41312;BME280;27061;41.648;24.568;2023-05-27T07:07:06;85849.72;;;15.09;67.88
41312;BME280;27061;41.648;24.568;2023-05-27T07:09:35;85884.09;;;15.26;67.42
41312;BME280;27061;41.648;24.568;2023-05-27T07:12:02;85888.72;;;15.35;67.67
41312;BME280;27061;41.648;24.568;2023-05-27T07:14:51;85937.72;;;15.78;68.43
41312;BME280;27061;41.648;24.568;2023-05-27T07:17:22;85763.69;;;14.47;68.36
41312;BME280;27061;41.648;24.568;2023-05-27T07:19:49;85764.00;;;14.61;66.63
41312;BME280;27061;41.648;24.568;2023-05-27T07:22:19;85818.78;;;14.94;65.50
41312;BME280;27061;41.648;24.568;2023-05-27T07:24:46;85866.31;;;15.37;66.93
41312;BME280;27061;41.648;24.568;2023-05-27T07:27:14;85864.84;;;15.41;67.26
41312;BME280;27061;41.648;24.568;2023-05-27T07:29:50;85922.41;;;15.77;67.57
41312;BME280;27061;41.648;24.568;2023-05-27T07:32:35;85899.13;;;15.62;68.13
41312;BME280;27061;41.648;24.568;2023-05-27T07:35:03;85740.53;;;14.52;67.49
41312;BME280;27061;41.648;24.568;2023-05-27T07:37:31;85833.44;;;15.17;67.08
41312;BME280;27061;41.648;24.568;2023-05-27T07:39:58;85925.31;;;15.73;67.24
41312;BME280;27061;41.648;24.568;2023-05-27T07:42:28;85877.03;;;15.54;66.67
41312;BME280;27061;41.648;24.568;2023-05-27T07:44:58;85847.09;;;15.27;66.55
41312;BME280;27061;41.648;24.568;2023-05-27T07:47:26;85897.28;;;15.52;66.28
41312;BME280;27061;41.648;24.568;2023-05-27T07:49:53;85742.47;;;14.33;66.14
41312;BME280;27061;41.648;24.568;2023-05-27T07:52:43;85907.88;;;15.48;67.86
41312;BME280;27061;41.648;24.568;2023-05-27T07:55:23;85951.50;;;15.84;68.32
41312;BME280;27061;41.648;24.568;2023-05-27T07:57:50;85908.00;;;15.44;68.36
41312;BME280;27061;41.648;24.568;2023-05-27T08:00:18;85915.00;;;15.43;68.98
41312;BME280;27061;41.648;24.568;2023-05-27T08:02:54;85944.09;;;15.50;69.07
41312;BME280;27061;41.648;24.568;2023-05-27T08:05:32;85961.69;;;15.69;69.45
41312;BME280;27061;41.648;24.568;2023-05-27T08:08:11;85913.88;;;15.33;69.48
41312;BME280;27061;41.648;24.568;2023-05-27T08:10:57;85935.50;;;15.33;69.83
41312;BME280;27061;41.648;24.568;2023-05-27T08:13:44;85789.91;;;14.29;71.14
41312;BME280;27061;41.648;24.568;2023-05-27T08:16:32;85965.22;;;15.43;73.07
41312;BME280;27061;41.648;24.568;2023-05-27T08:19:19;85931.00;;;15.19;73.88
41312;BME280;27061;41.648;24.568;2023-05-27T08:21:59;85885.13;;;14.89;74.13
41312;BME280;27061;41.648;24.568;2023-05-27T08:24:51;85980.84;;;15.58;74.19
41312;BME280;27061;41.648;24.568;2023-05-27T08:27:53;85954.75;;;15.43;73.28
41312;BME280;27061;41.648;24.568;2023-05-27T08:30:46;85945.94;;;15.34;73.54
41312;BME280;27061;41.648;24.568;2023-05-27T08:33:23;85985.81;;;15.56;73.11
41312;BME280;27061;41.648;24.568;2023-05-27T08:35:50;85974.72;;;15.52;72.15
41312;BME280;27061;41.648;24.568;2023-05-27T08:38:35;85875.16;;;14.72;71.56
41312;BME280;27061;41.648;24.568;2023-05-27T08:41:15;86006.75;;;15.55;71.35
41312;BME280;27061;41.648;24.568;2023-05-27T08:43:43;85935.66;;;15.02;72.29
41312;BME280;27061;41.648;24.568;2023-05-27T08:46:13;85843.13;;;14.17;72.41
41312;BME280;27061;41.648;24.568;2023-05-27T08:48:41;85986.88;;;15.15;72.30
41312;BME280;27061;41.648;24.568;2023-05-27T08:51:09;85978.66;;;15.09;72.81
41312;BME280;27061;41.648;24.568;2023-05-27T08:53:40;85984.25;;;15.09;72.95
41312;BME280;27061;41.648;24.568;2023-05-27T08:56:08;85939.19;;;14.74;72.23
41312;BME280;27061;41.648;24.568;2023-05-27T08:58:46;85858.47;;;14.16;73.49
41312;BME280;27061;41.648;24.568;2023-05-27T09:01:23;85996.88;;;15.06;74.49
41312;BME280;27061;41.648;24.568;2023-05-27T09:03:51;85817.97;;;13.65;75.20
41312;BME280;27061;41.648;24.568;2023-05-27T09:06:18;85946.84;;;14.73;75.73
41312;BME280;27061;41.648;24.568;2023-05-27T09:08:50;85960.78;;;15.00;76.82
41312;BME280;27061;41.648;24.568;2023-05-27T09:11:25;85989.72;;;15.13;78.38
41312;BME280;27061;41.648;24.568;2023-05-27T09:13:54;85987.50;;;15.18;79.15
41312;BME280;27061;41.648;24.568;2023-05-27T09:16:26;85978.56;;;15.13;78.45
41312;BME280;27061;41.648;24.568;2023-05-27T09:18:54;85939.88;;;15.01;76.03
41312;BME280;27061;41.648;24.568;2023-05-27T09:21:26;85849.75;;;14.30;79.05
41312;BME280;27061;41.648;24.568;2023-05-27T09:23:58;85825.28;;;14.08;78.65
41312;BME280;27061;41.648;24.568;2023-05-27T09:26:29;85942.59;;;15.03;78.60
41312;BME280;27061;41.648;24.568;2023-05-27T09:28:58;85919.66;;;14.74;77.93
41312;BME280;27061;41.648;24.568;2023-05-27T09:31:29;85958.31;;;15.15;76.79
41312;BME280;27061;41.648;24.568;2023-05-27T09:33:58;85976.53;;;15.36;76.35
41312;BME280;27061;41.648;24.568;2023-05-27T09:36:28;85902.81;;;14.80;75.79
41312;BME280;27061;41.648;24.568;2023-05-27T09:38:58;85978.59;;;15.38;72.88
41312;BME280;27061;41.648;24.568;2023-05-27T09:41:25;85961.22;;;15.11;74.78
41312;BME280;27061;41.648;24.568;2023-05-27T09:43:54;85956.63;;;14.99;75.33
41312;BME280;27061;41.648;24.568;2023-05-27T09:46:24;85905.66;;;14.51;75.63
41312;BME280;27061;41.648;24.568;2023-05-27T09:48:52;85868.03;;;14.23;74.43
41312;BME280;27061;41.648;24.568;2023-05-27T09:51:21;85985.34;;;15.20;74.62
41312;BME280;27061;41.648;24.568;2023-05-27T09:53:53;85989.78;;;15.11;76.15
41312;BME280;27061;41.648;24.568;2023-05-27T09:56:27;85950.06;;;14.84;73.27
41312;BME280;27061;41.648;24.568;2023-05-27T09:58:56;85937.72;;;14.77;75.27
41312;BME280;27061;41.648;24.568;2023-05-27T10:01:26;85914.75;;;14.49;75.17
41312;BME280;27061;41.648;24.568;2023-05-27T10:03:56;85960.63;;;14.79;76.57
41312;BME280;27061;41.648;24.568;2023-05-27T10:06:27;85948.94;;;14.73;76.44
41312;BME280;27061;41.648;24.568;2023-05-27T10:08:55;85993.81;;;15.16;77.27
41312;BME280;27061;41.648;24.568;2023-05-27T10:11:25;85948.84;;;14.77;76.97
41312;BME280;27061;41.648;24.568;2023-05-27T10:13:55;85859.94;;;14.13;78.41
41312;BME280;27061;41.648;24.568;2023-05-27T10:16:26;85835.22;;;13.99;77.25
41312;BME280;27061;41.648;24.568;2023-05-27T10:18:56;85947.41;;;14.80;76.62
41312;BME280;27061;41.648;24.568;2023-05-27T10:21:27;85800.44;;;13.71;77.92
41312;BME280;27061;41.648;24.568;2023-05-27T10:24:03;85986.31;;;15.11;76.64
41312;BME280;27061;41.648;24.568;2023-05-27T10:26:32;85897.34;;;14.49;77.27
41312;BME280;27061;41.648;24.568;2023-05-27T10:31:50;85951.38;;;14.87;75.58
41312;BME280;27061;41.648;24.568;2023-05-27T10:34:19;85961.88;;;14.84;77.11
41312;BME280;27061;41.648;24.568;2023-05-27T10:36:58;85975.38;;;15.02;77.80
41312;BME280;27061;41.648;24.568;2023-05-27T10:39:26;85954.22;;;14.85;77.25
41312;BME280;27061;41.648;24.568;2023-05-27T10:41:56;85960.78;;;15.00;77.54
41312;BME280;27061;41.648;24.568;2023-05-27T10:47:10;85958.78;;;14.96;77.48
41312;BME280;27061;41.648;24.568;2023-05-27T10:49:38;85983.94;;;15.21;76.01
41312;BME280;27061;41.648;24.568;2023-05-27T10:52:25;85949.69;;;14.98;75.88
41312;BME280;27061;41.648;24.568;2023-05-27T10:54:58;85953.22;;;14.96;75.84
41312;BME280;27061;41.648;24.568;2023-05-27T10:57:30;85948.44;;;14.93;76.95
41312;BME280;27061;41.648;24.568;2023-05-27T11:00:01;85955.94;;;14.98;76.57
41312;BME280;27061;41.648;24.568;2023-05-27T11:02:31;85983.69;;;15.29;74.02
41312;BME280;27061;41.648;24.568;2023-05-27T11:04:59;85988.03;;;15.24;75.37
41312;BME280;27061;41.648;24.568;2023-05-27T11:07:26;85930.63;;;14.82;76.03
41312;BME280;27061;41.648;24.568;2023-05-27T11:09:54;85920.22;;;14.80;76.31
41312;BME280;27061;41.648;24.568;2023-05-27T11:12:23;85943.03;;;14.87;76.13
41312;BME280;27061;41.648;24.568;2023-05-27T11:14:53;85982.38;;;15.26;75.88
41312;BME280;27061;41.648;24.568;2023-05-27T11:17:20;85900.91;;;14.72;74.65
41312;BME280;27061;41.648;24.568;2023-05-27T11:19:48;85926.25;;;14.89;72.85
41312;BME280;27061;41.648;24.568;2023-05-27T11:22:18;85954.56;;;15.24;72.32
41312;BME280;27061;41.648;24.568;2023-05-27T11:24:59;85964.03;;;15.35;73.80
41312;BME280;27061;41.648;24.568;2023-05-27T11:27:34;85939.53;;;15.13;74.67
41312;BME280;27061;41.648;24.568;2023-05-27T11:30:11;85965.16;;;15.45;72.57
41312;BME280;27061;41.648;24.568;2023-05-27T11:32:40;85962.75;;;15.30;73.83
41312;BME280;27061;41.648;24.568;2023-05-27T11:35:15;85909.69;;;14.83;75.45
41312;BME280;27061;41.648;24.568;2023-05-27T11:37:49;85842.59;;;14.39;74.99
41312;BME280;27061;41.648;24.568;2023-05-27T11:40:18;85903.91;;;14.91;73.16
41312;BME280;27061;41.648;24.568;2023-05-27T11:42:45;85963.16;;;15.41;75.21
41312;BME280;27061;41.648;24.568;2023-05-27T11:45:18;85934.41;;;15.22;72.37
41312;BME280;27061;41.648;24.568;2023-05-27T11:47:46;85961.63;;;15.46;74.38
41312;BME280;27061;41.648;24.568;2023-05-27T11:50:25;85954.06;;;15.43;72.87
41312;BME280;27061;41.648;24.568;2023-05-27T11:52:56;85806.56;;;14.31;75.48
41312;BME280;27061;41.648;24.568;2023-05-27T11:55:24;85795.91;;;14.13;75.90
41312;BME280;27061;41.648;24.568;2023-05-27T11:57:51;85655.78;;;12.88;76.21
41312;BME280;27061;41.648;24.568;2023-05-27T12:00:19;85942.28;;;15.40;77.40
41312;BME280;27061;41.648;24.568;2023-05-27T12:02:47;85911.75;;;15.09;75.93
41312;BME280;27061;41.648;24.568;2023-05-27T12:05:15;85879.91;;;15.02;76.17
41312;BME280;27061;41.648;24.568;2023-05-27T12:07:49;85614.91;;;13.11;75.83
41312;BME280;27061;41.648;24.568;2023-05-27T12:10:16;85812.81;;;14.58;76.09
41312;BME280;27061;41.648;24.568;2023-05-27T12:12:44;85606.28;;;13.24;75.44
41312;BME280;27061;41.648;24.568;2023-05-27T12:15:11;85914.56;;;15.59;73.92
41312;BME280;27061;41.648;24.568;2023-05-27T12:17:38;85844.84;;;15.09;74.36
41312;BME280;27061;41.648;24.568;2023-05-27T12:20:06;85911.53;;;15.67;74.06
41312;BME280;27061;41.648;24.568;2023-05-27T12:22:45;85821.97;;;15.05;74.89
41312;BME280;27061;41.648;24.568;2023-05-27T12:25:12;85926.56;;;15.78;72.51
41312;BME280;27061;41.648;24.568;2023-05-27T12:27:39;85845.81;;;15.24;74.44
41312;BME280;27061;41.648;24.568;2023-05-27T12:30:07;85902.97;;;15.73;73.82
41312;BME280;27061;41.648;24.568;2023-05-27T12:32:35;85871.31;;;15.58;73.43
41312;BME280;27061;41.648;24.568;2023-05-27T12:35:02;85921.97;;;15.91;73.43
41312;BME280;27061;41.648;24.568;2023-05-27T12:37:29;85882.28;;;15.66;73.86
41312;BME280;27061;41.648;24.568;2023-05-27T12:39:56;85791.81;;;15.11;73.75
41312;BME280;27061;41.648;24.568;2023-05-27T12:42:26;85846.63;;;15.44;72.72
41312;BME280;27061;41.648;24.568;2023-05-27T12:44:55;85904.31;;;15.99;72.21
41312;BME280;27061;41.648;24.568;2023-05-27T12:47:22;85900.88;;;15.96;72.68
41312;BME280;27061;41.648;24.568;2023-05-27T12:49:49;85914.53;;;16.06;73.03
41312;BME280;27061;41.648;24.568;2023-05-27T12:52:17;85911.53;;;16.13;69.99
41312;BME280;27061;41.648;24.568;2023-05-27T12:54:45;85902.97;;;16.19;68.92
41312;BME280;27061;41.648;24.568;2023-05-27T12:57:12;85710.00;;;14.73;71.07
41312;BME280;27061;41.648;24.568;2023-05-27T12:59:41;85908.44;;;16.23;70.70
41312;BME280;27061;41.648;24.568;2023-05-27T13:02:08;85907.06;;;16.22;70.64
41312;BME280;27061;41.648;24.568;2023-05-27T13:04:37;85841.47;;;15.77;70.40
41312;BME280;27061;41.648;24.568;2023-05-27T13:07:09;85857.44;;;16.01;69.12
41312;BME280;27061;41.648;24.568;2023-05-27T13:09:39;85854.84;;;15.95;68.77
41312;BME280;27061;41.648;24.568;2023-05-27T13:12:06;85890.31;;;16.22;67.70
41312;BME280;27061;41.648;24.568;2023-05-27T13:14:34;85872.81;;;16.00;68.96
41312;BME280;27061;41.648;24.568;2023-05-27T13:17:01;85676.25;;;14.60;69.42
41312;BME280;27061;41.648;24.568;2023-05-27T13:19:29;85728.06;;;14.99;69.25